createdAt,value
2022-10-20T00:00:55.856Z,7.62
2022-10-20T00:02:04.761Z,7.61
2022-10-20T00:03:35.176Z,7.67
2022-10-20T00:04:50.247Z,7.66
2022-10-20T00:09:54.601Z,7.62
2022-10-20T00:11:07.884Z,7.69
2022-10-20T00:12:12.349Z,7.64
2022-10-20T00:13:22.695Z,7.65
2022-10-20T00:14:44.056Z,7.69
2022-10-20T00:16:12.233Z,7.61
2022-10-20T00:17:29.427Z,7.59
2022-10-20T00:18:38.905Z,7.58
2022-10-20T00:19:53.425Z,7.59
2022-10-20T00:21:11.019Z,7.59
2022-10-20T00:24:03.014Z,7.63
2022-10-20T00:25:16.134Z,7.66
2022-10-20T00:26:41.324Z,7.60
2022-10-20T00:27:51.661Z,7.62
2022-10-20T00:30:47.656Z,7.61
2022-10-20T00:31:53.809Z,7.61
2022-10-20T00:33:12.807Z,7.59
2022-10-20T00:34:32.179Z,7.71
2022-10-20T00:35:40.514Z,7.73
2022-10-20T00:36:50.417Z,7.69
2022-10-20T00:38:01.513Z,7.63
2022-10-20T00:39:10.952Z,7.66
2022-10-20T00:40:16.919Z,7.69
2022-10-20T00:41:27.835Z,7.78
2022-10-20T00:42:35.509Z,7.73
2022-10-20T00:43:57.093Z,7.65
2022-10-20T00:45:05.483Z,7.68
2022-10-20T00:49:26.037Z,7.76
2022-10-20T00:50:44.090Z,7.70
2022-10-20T00:52:06.233Z,7.71
2022-10-20T00:53:11.250Z,7.78
2022-10-20T00:54:22.792Z,7.82
2022-10-20T00:55:34.657Z,7.84
2022-10-20T00:56:48.768Z,7.79
2022-10-20T00:57:54.049Z,7.73
2022-10-20T00:58:59.521Z,7.71
2022-10-20T01:00:13.374Z,7.78
2022-10-20T01:01:28.501Z,7.65
2022-10-20T01:03:55.286Z,7.67
2022-10-20T01:05:01.818Z,7.64
2022-10-20T01:06:10.560Z,7.67
2022-10-20T01:07:19.966Z,7.68
2022-10-20T01:08:22.618Z,7.63
2022-10-20T01:09:28.140Z,7.59
2022-10-20T01:10:57.386Z,7.60
2022-10-20T01:12:09.497Z,7.68
2022-10-20T01:17:15.632Z,7.68
2022-10-20T01:19:00.152Z,7.69
2022-10-20T01:21:14.817Z,7.76
2022-10-20T01:22:32.484Z,7.67
2022-10-20T01:24:24.519Z,7.79
2022-10-20T01:25:57.292Z,7.82
2022-10-20T01:27:49.078Z,7.74
2022-10-20T01:29:11.517Z,7.68
2022-10-20T01:33:06.570Z,7.53
2022-10-20T01:34:29.980Z,7.51
2022-10-20T01:35:54.639Z,7.51
2022-10-20T01:37:19.768Z,7.50
2022-10-20T01:39:28.797Z,7.49
2022-10-20T01:44:32.992Z,7.56
2022-10-20T01:49:41.360Z,7.64
2022-10-20T01:52:39.360Z,7.52
2022-10-20T01:54:07.630Z,7.54
2022-10-20T01:57:06.287Z,7.53
2022-10-20T01:58:16.087Z,7.59
2022-10-20T02:00:27.158Z,7.54
2022-10-20T02:01:50.802Z,7.51
2022-10-20T02:03:40.185Z,7.51
2022-10-20T02:05:10.952Z,7.50
2022-10-20T02:06:53.377Z,7.47
2022-10-20T02:08:40.484Z,7.47
2022-10-20T02:11:05.320Z,7.51
2022-10-20T02:12:46.801Z,7.50
2022-10-20T02:14:19.687Z,7.44
2022-10-20T02:15:31.803Z,7.36
2022-10-20T02:17:01.394Z,7.38
2022-10-20T02:18:22.714Z,7.38
2022-10-20T02:19:44.203Z,7.40
2022-10-20T02:20:57.403Z,7.40
2022-10-20T02:22:26.623Z,7.41
2022-10-20T02:23:37.590Z,7.43
2022-10-20T02:24:44.579Z,7.54
2022-10-20T02:25:56.697Z,7.54
2022-10-20T02:27:24.997Z,7.45
2022-10-20T02:28:40.464Z,7.44
2022-10-20T02:29:52.450Z,7.36
2022-10-20T02:30:58.330Z,7.35
2022-10-20T02:32:03.558Z,7.36
2022-10-20T02:33:08.341Z,7.36
2022-10-20T02:34:12.927Z,7.42
2022-10-20T02:35:21.406Z,7.35
2022-10-20T02:36:29.969Z,7.41
2022-10-20T02:37:32.557Z,7.34
2022-10-20T02:38:38.830Z,7.39
2022-10-20T02:39:41.972Z,7.40
2022-10-20T02:40:48.859Z,7.38
2022-10-20T02:41:56.743Z,7.45
2022-10-20T02:43:11.327Z,7.44
2022-10-20T02:44:14.479Z,7.45
2022-10-20T02:45:19.489Z,7.44
2022-10-20T02:46:25.857Z,7.50
2022-10-20T02:47:35.087Z,7.45
2022-10-20T02:48:47.056Z,7.46
2022-10-20T02:49:50.903Z,7.51
2022-10-20T02:50:57.607Z,7.54
2022-10-20T02:52:03.399Z,7.53
2022-10-20T02:53:07.156Z,7.53
2022-10-20T02:54:14.854Z,7.58
2022-10-20T02:55:20.390Z,7.53
2022-10-20T02:56:31.111Z,7.55
2022-10-20T02:57:41.894Z,7.52
2022-10-20T02:58:48.618Z,7.55
2022-10-20T02:59:53.486Z,7.50
2022-10-20T03:01:03.111Z,7.45
2022-10-20T03:02:21.425Z,7.48
2022-10-20T03:03:29.410Z,7.50
2022-10-20T03:04:33.274Z,7.48
2022-10-20T03:05:45.020Z,7.50
2022-10-20T03:06:49.961Z,7.50
2022-10-20T03:07:55.494Z,7.53
2022-10-20T03:08:59.243Z,7.53
2022-10-20T03:10:05.269Z,7.54
2022-10-20T03:11:10.976Z,7.51
2022-10-20T03:12:15.190Z,7.51
2022-10-20T03:13:19.390Z,7.50
2022-10-20T03:14:24.361Z,7.56
2022-10-20T03:15:43.310Z,7.52
2022-10-20T03:16:47.454Z,7.50
2022-10-20T03:17:49.902Z,7.52
2022-10-20T03:18:52.232Z,7.47
2022-10-20T03:19:58.393Z,7.48
2022-10-20T03:21:06.244Z,7.45
2022-10-20T03:22:26.210Z,7.48
2022-10-20T03:23:28.484Z,7.36
2022-10-20T03:24:35.019Z,7.42
2022-10-20T03:25:49.509Z,7.39
2022-10-20T03:27:00.863Z,7.36
2022-10-20T03:28:04.964Z,7.37
2022-10-20T03:29:09.144Z,7.42
2022-10-20T03:30:28.296Z,7.39
2022-10-20T03:31:38.810Z,7.37
2022-10-20T03:32:44.334Z,7.44
2022-10-20T03:35:15.545Z,7.38
2022-10-20T03:36:26.963Z,7.31
2022-10-20T03:37:30.239Z,7.47
2022-10-20T03:38:36.916Z,7.28
2022-10-20T03:39:39.846Z,7.30
2022-10-20T03:40:50.198Z,7.28
2022-10-20T03:41:56.775Z,7.21
2022-10-20T03:44:27.390Z,7.27
2022-10-20T03:45:34.029Z,7.20
2022-10-20T03:47:56.057Z,7.13
2022-10-20T03:49:08.973Z,7.20
2022-10-20T03:50:22.597Z,7.25
2022-10-20T03:51:37.036Z,7.15
2022-10-20T03:53:06.962Z,7.16
2022-10-20T03:54:13.407Z,7.10
2022-10-20T03:56:41.979Z,7.09
2022-10-20T03:57:49.292Z,7.14
2022-10-20T04:00:25.598Z,7.15
2022-10-20T04:01:48.960Z,7.17
2022-10-20T04:03:06.364Z,7.27
2022-10-20T04:04:14.327Z,7.20
2022-10-20T04:05:28.570Z,7.22
2022-10-20T04:06:33.839Z,7.21
2022-10-20T04:07:43.391Z,7.24
2022-10-20T04:09:01.944Z,7.26
2022-10-20T04:11:46.075Z,7.13
2022-10-20T04:12:53.577Z,7.16
2022-10-20T04:14:00.233Z,7.28
2022-10-20T04:15:12.816Z,7.07
2022-10-20T04:16:43.855Z,7.10
2022-10-20T04:17:51.484Z,7.10
2022-10-20T04:19:02.115Z,7.14
2022-10-20T04:20:11.342Z,7.09
2022-10-20T04:21:15.297Z,7.07
2022-10-20T04:22:19.741Z,7.08
2022-10-20T04:23:28.725Z,7.00
2022-10-20T04:24:33.300Z,7.08
2022-10-20T04:25:40.831Z,7.06
2022-10-20T04:26:47.838Z,7.10
2022-10-20T04:28:03.337Z,7.18
2022-10-20T04:29:08.534Z,7.05
2022-10-20T04:30:11.769Z,7.09
2022-10-20T04:31:38.129Z,7.11
2022-10-20T04:32:41.773Z,7.10
2022-10-20T04:33:44.210Z,7.17
2022-10-20T04:34:48.622Z,7.11
2022-10-20T04:36:03.474Z,7.23
2022-10-20T04:37:08.894Z,7.21
2022-10-20T04:38:12.599Z,7.23
2022-10-20T04:39:19.598Z,7.21
2022-10-20T04:40:24.680Z,7.29
2022-10-20T04:41:30.190Z,7.41
2022-10-20T04:42:35.878Z,7.27
2022-10-20T04:43:40.385Z,7.23
2022-10-20T04:44:45.602Z,7.23
2022-10-20T04:46:03.890Z,7.16
2022-10-20T04:47:11.725Z,7.15
2022-10-20T04:48:16.286Z,7.20
2022-10-20T04:49:20.515Z,7.26
2022-10-20T04:50:27.210Z,7.13
2022-10-20T04:52:00.859Z,7.15
2022-10-20T04:53:05.711Z,7.22
2022-10-20T04:54:09.541Z,7.10
2022-10-20T04:55:12.023Z,7.27
2022-10-20T04:56:22.184Z,7.25
2022-10-20T04:57:27.164Z,7.18
2022-10-20T04:58:29.982Z,7.11
2022-10-20T04:59:38.132Z,7.10
2022-10-20T05:00:42.141Z,7.13
2022-10-20T05:01:47.543Z,7.16
2022-10-20T05:02:51.006Z,7.19
2022-10-20T05:03:56.373Z,7.18
2022-10-20T05:04:58.427Z,7.23
2022-10-20T05:06:15.492Z,7.11
2022-10-20T05:07:17.525Z,7.20
2022-10-20T05:08:21.136Z,7.15
2022-10-20T05:09:23.242Z,7.02
2022-10-20T05:10:25.254Z,7.12
2022-10-20T05:11:29.413Z,7.09
2022-10-20T05:12:32.051Z,7.11
2022-10-20T05:13:35.391Z,7.02
2022-10-20T05:14:37.593Z,7.00
2022-10-20T05:15:39.814Z,6.94
2022-10-20T05:16:44.819Z,7.09
2022-10-20T05:17:48.465Z,6.97
2022-10-20T05:18:53.462Z,7.03
2022-10-20T05:19:56.031Z,7.04
2022-10-20T05:21:08.487Z,7.09
2022-10-20T05:22:11.341Z,7.03
2022-10-20T05:23:13.549Z,7.12
2022-10-20T05:24:22.102Z,7.07
2022-10-20T05:25:36.024Z,7.05
2022-10-20T05:26:39.317Z,7.11
2022-10-20T05:27:42.573Z,7.06
2022-10-20T05:28:49.803Z,6.96
2022-10-20T05:29:51.834Z,7.08
2022-10-20T05:30:55.642Z,7.04
2022-10-20T05:32:00.094Z,7.13
2022-10-20T05:33:03.524Z,7.13
2022-10-20T05:34:05.529Z,7.29
2022-10-20T05:35:09.105Z,7.13
2022-10-20T05:36:12.738Z,7.11
2022-10-20T05:37:14.779Z,7.09
2022-10-20T05:38:16.736Z,7.16
2022-10-20T05:39:19.352Z,7.08
2022-10-20T05:40:25.830Z,7.11
2022-10-20T05:41:33.327Z,7.06
2022-10-20T05:42:39.206Z,7.02
2022-10-20T05:43:42.015Z,7.13
2022-10-20T05:44:43.987Z,7.15
2022-10-20T05:45:46.045Z,7.16
2022-10-20T05:46:48.028Z,7.18
2022-10-20T05:47:50.141Z,7.14
2022-10-20T05:48:57.520Z,7.18
2022-10-20T05:49:59.905Z,7.19
2022-10-20T05:51:15.025Z,7.04
2022-10-20T05:52:17.621Z,7.10
2022-10-20T05:53:21.450Z,7.08
2022-10-20T05:54:24.635Z,7.09
2022-10-20T05:55:26.650Z,7.05
2022-10-20T05:56:30.749Z,6.99
2022-10-20T05:57:37.055Z,7.01
2022-10-20T05:58:45.677Z,7.06
2022-10-20T05:59:50.826Z,7.05
2022-10-20T06:00:54.650Z,7.12
2022-10-20T06:01:56.793Z,7.21
2022-10-20T06:02:59.526Z,7.09
2022-10-20T06:04:04.058Z,7.06
2022-10-20T06:05:10.048Z,7.11
2022-10-20T06:06:15.251Z,7.18
2022-10-20T06:07:20.600Z,7.27
2022-10-20T06:08:27.128Z,7.18
2022-10-20T06:09:30.311Z,7.18
2022-10-20T06:10:34.335Z,7.14
2022-10-20T06:11:41.875Z,7.22
2022-10-20T06:12:52.351Z,7.35
2022-10-20T06:14:15.583Z,7.33
2022-10-20T06:15:33.549Z,7.43
2022-10-20T06:17:00.666Z,7.39
2022-10-20T06:18:03.291Z,7.47
2022-10-20T06:19:07.991Z,7.51
2022-10-20T06:20:26.085Z,7.56
2022-10-20T06:22:03.890Z,7.75
2022-10-20T06:23:22.642Z,7.78
2022-10-20T06:24:34.810Z,7.69
2022-10-20T06:25:46.447Z,7.50
2022-10-20T06:26:53.165Z,7.51
2022-10-20T06:28:01.581Z,7.48
2022-10-20T06:29:10.826Z,7.53
2022-10-20T06:30:25.449Z,7.54
2022-10-20T06:32:06.637Z,7.56
2022-10-20T06:33:17.811Z,7.61
2022-10-20T06:34:25.823Z,7.70
2022-10-20T06:35:31.488Z,7.61
2022-10-20T06:36:48.398Z,7.61
2022-10-20T06:38:11.202Z,7.77
2022-10-20T06:39:20.670Z,7.72
2022-10-20T06:40:26.268Z,7.64
2022-10-20T06:41:33.433Z,7.62
2022-10-20T06:42:41.548Z,7.71
2022-10-20T06:43:50.702Z,7.76
2022-10-20T06:44:56.287Z,7.67
2022-10-20T06:46:03.389Z,7.79
2022-10-20T06:47:11.367Z,7.76
2022-10-20T06:48:32.200Z,7.87
2022-10-20T06:49:35.387Z,7.85
2022-10-20T06:50:38.742Z,7.86
2022-10-20T06:52:32.268Z,7.98
2022-10-20T06:53:38.914Z,7.87
2022-10-20T06:54:54.155Z,7.87
2022-10-20T06:56:28.624Z,8.08
2022-10-20T06:57:33.657Z,8.05
2022-10-20T06:58:38.629Z,8.08
2022-10-20T06:59:45.512Z,8.11
2022-10-20T07:00:47.840Z,8.09
2022-10-20T07:01:50.654Z,8.14
2022-10-20T07:04:15.762Z,7.96
2022-10-20T07:05:31.775Z,8.03
2022-10-20T07:06:41.919Z,8.11
2022-10-20T07:07:47.096Z,8.13
2022-10-20T07:08:51.240Z,8.26
2022-10-20T07:09:57.698Z,8.48
2022-10-20T07:11:10.191Z,8.42
2022-10-20T07:12:17.352Z,8.35
2022-10-20T07:13:19.637Z,8.65
2022-10-20T07:17:22.708Z,8.38
2022-10-20T07:18:28.173Z,8.66
2022-10-20T07:19:33.333Z,8.84
2022-10-20T07:20:37.086Z,8.79
2022-10-20T07:21:45.922Z,8.75
2022-10-20T07:22:54.461Z,8.89
2022-10-20T07:24:11.887Z,9.10
2022-10-20T07:25:27.527Z,9.43
2022-10-20T07:26:32.911Z,9.58
2022-10-20T07:27:37.623Z,9.76
2022-10-20T07:30:06.783Z,9.52
2022-10-20T07:32:34.369Z,9.96
2022-10-20T07:33:38.028Z,9.93
2022-10-20T07:34:41.531Z,9.29
2022-10-20T07:36:02.333Z,9.28
2022-10-20T07:37:05.936Z,10.73
2022-10-20T07:40:46.516Z,12.45
2022-10-20T07:41:52.702Z,12.42
2022-10-20T07:42:57.614Z,13.07
2022-10-20T07:44:00.233Z,12.79
2022-10-20T07:45:05.871Z,13.19
2022-10-20T07:46:11.921Z,13.09
2022-10-20T07:47:14.175Z,13.26
2022-10-20T07:48:19.239Z,13.78
2022-10-20T07:50:46.113Z,13.79
2022-10-20T07:51:50.913Z,13.75
2022-10-20T07:52:53.662Z,14.43
2022-10-20T07:54:04.800Z,14.77
2022-10-20T07:55:18.000Z,14.26
2022-10-20T07:56:43.795Z,14.07
2022-10-20T07:57:48.751Z,13.49
2022-10-20T07:58:54.147Z,13.57
2022-10-20T07:59:58.906Z,13.27
2022-10-20T08:01:01.277Z,13.76
2022-10-20T08:02:04.810Z,13.22
2022-10-20T08:03:11.377Z,13.35
2022-10-20T08:04:15.571Z,13.33
2022-10-20T08:05:17.844Z,12.49
2022-10-20T08:07:40.625Z,13.59
2022-10-20T08:08:44.579Z,13.05
2022-10-20T08:09:47.758Z,12.48
2022-10-20T08:10:50.817Z,12.07
2022-10-20T08:11:55.500Z,11.94
2022-10-20T08:12:58.741Z,12.29
2022-10-20T08:14:00.854Z,12.72
2022-10-20T08:15:18.905Z,11.89
2022-10-20T08:17:40.369Z,11.09
2022-10-20T08:18:59.830Z,10.98
2022-10-20T08:20:13.587Z,11.00
2022-10-20T08:21:20.097Z,10.55
2022-10-20T08:22:24.755Z,10.30
2022-10-20T08:23:32.067Z,10.23
2022-10-20T08:24:44.602Z,10.28
2022-10-20T08:25:47.728Z,10.18
2022-10-20T08:26:51.416Z,9.84
2022-10-20T08:27:54.087Z,9.93
2022-10-20T08:28:59.820Z,9.72
2022-10-20T08:30:22.406Z,9.47
2022-10-20T08:31:31.481Z,9.49
2022-10-20T08:32:34.803Z,9.64
2022-10-20T08:33:41.928Z,9.60
2022-10-20T08:34:44.150Z,9.96
2022-10-20T08:35:47.212Z,9.65
2022-10-20T08:36:49.390Z,9.90
2022-10-20T08:37:55.400Z,9.40
2022-10-20T08:39:05.059Z,8.96
2022-10-20T08:40:16.750Z,8.88
2022-10-20T08:41:23.184Z,8.98
2022-10-20T08:42:27.354Z,9.37
2022-10-20T08:43:34.286Z,9.50
2022-10-20T08:44:38.769Z,9.53
2022-10-20T08:45:40.907Z,9.29
2022-10-20T08:46:43.369Z,9.22
2022-10-20T08:47:47.362Z,9.14
2022-10-20T08:48:50.425Z,9.38
2022-10-20T08:49:54.356Z,9.39
2022-10-20T08:50:58.126Z,9.55
2022-10-20T08:52:07.089Z,9.64
2022-10-20T08:53:11.929Z,9.64
2022-10-20T08:54:19.072Z,9.09
2022-10-20T08:55:30.482Z,9.10
2022-10-20T08:56:36.695Z,9.50
2022-10-20T08:57:43.255Z,9.14
2022-10-20T08:58:46.787Z,8.83
2022-10-20T08:59:52.613Z,8.77
2022-10-20T09:01:00.848Z,8.63
2022-10-20T09:02:14.810Z,8.68
2022-10-20T09:04:52.424Z,8.73
2022-10-20T09:06:09.586Z,8.64
2022-10-20T09:07:34.523Z,8.86
2022-10-20T09:08:40.341Z,8.95
2022-10-20T09:09:42.718Z,8.79
2022-10-20T09:10:53.849Z,8.67
2022-10-20T09:12:06.697Z,8.67
2022-10-20T09:13:23.913Z,8.80
2022-10-20T09:14:26.599Z,8.63
2022-10-20T09:15:32.280Z,8.62
2022-10-20T09:16:58.829Z,8.53
2022-10-20T09:18:14.069Z,8.75
2022-10-20T09:19:24.014Z,8.63
2022-10-20T09:26:57.465Z,8.48
2022-10-20T09:28:34.816Z,8.73
2022-10-20T09:29:48.075Z,8.67
2022-10-20T09:30:51.230Z,8.82
2022-10-20T09:31:58.304Z,8.75
2022-10-20T09:33:23.497Z,8.80
2022-10-20T09:34:37.342Z,8.78
2022-10-20T09:35:42.201Z,8.86
2022-10-20T09:36:54.865Z,9.00
2022-10-20T09:38:10.574Z,8.93
2022-10-20T09:39:26.569Z,8.68
2022-10-20T09:40:29.881Z,8.69
2022-10-20T09:41:34.617Z,8.88
2022-10-20T09:42:41.393Z,8.84
2022-10-20T09:43:58.831Z,9.09
2022-10-20T09:45:07.811Z,9.02
2022-10-20T09:46:13.468Z,9.32
2022-10-20T09:47:17.712Z,9.55
2022-10-20T09:48:35.831Z,9.22
2022-10-20T09:49:40.312Z,9.38
2022-10-20T09:50:49.371Z,9.20
2022-10-20T09:52:57.229Z,9.03
2022-10-20T09:54:08.250Z,9.15
2022-10-20T09:55:33.391Z,9.15
2022-10-20T09:56:41.412Z,9.24
2022-10-20T09:57:50.150Z,8.77
2022-10-20T09:58:52.950Z,8.84
2022-10-20T10:00:04.551Z,8.95
2022-10-20T10:01:18.960Z,9.02
2022-10-20T10:02:21.129Z,8.85
2022-10-20T10:03:24.227Z,8.97
2022-10-20T10:04:42.514Z,9.02
2022-10-20T10:05:45.060Z,8.78
2022-10-20T10:06:48.595Z,8.73
2022-10-20T10:08:00.108Z,8.48
2022-10-20T10:09:03.645Z,8.85
2022-10-20T10:10:27.458Z,8.71
2022-10-20T10:11:35.576Z,8.56
2022-10-20T10:12:38.051Z,8.51
2022-10-20T10:13:44.463Z,8.37
2022-10-20T10:15:18.194Z,8.56
2022-10-20T10:16:27.887Z,8.70
2022-10-20T10:17:43.859Z,8.45
2022-10-20T10:18:58.022Z,8.63
2022-10-20T10:20:02.211Z,8.67
2022-10-20T10:21:11.186Z,8.48
2022-10-20T10:22:20.793Z,8.59
2022-10-20T10:23:28.333Z,8.68
2022-10-20T10:24:42.288Z,8.66
2022-10-20T10:25:46.247Z,8.81
2022-10-20T10:26:55.405Z,8.73
2022-10-20T10:28:22.830Z,8.78
2022-10-20T10:29:28.460Z,8.55
2022-10-20T10:30:35.485Z,8.26
2022-10-20T10:31:50.412Z,8.26
2022-10-20T10:32:52.682Z,8.33
2022-10-20T10:34:13.279Z,8.42
2022-10-20T10:35:41.144Z,8.59
2022-10-20T10:36:43.684Z,8.81
2022-10-20T10:37:46.371Z,8.89
2022-10-20T10:38:52.091Z,8.76
2022-10-20T10:39:55.051Z,8.75
2022-10-20T10:41:24.291Z,8.70
2022-10-20T10:42:55.651Z,8.58
2022-10-20T10:44:00.352Z,8.59
2022-10-20T10:45:25.277Z,8.73
2022-10-20T10:46:34.133Z,8.76
2022-10-20T10:47:42.337Z,8.71
2022-10-20T10:48:48.090Z,8.60
2022-10-20T10:50:03.103Z,8.73
2022-10-20T10:51:16.725Z,8.65
2022-10-20T10:52:31.520Z,8.84
2022-10-20T10:53:59.594Z,8.86
2022-10-20T10:55:30.555Z,8.80
2022-10-20T10:56:50.172Z,8.91
2022-10-20T10:58:01.373Z,9.00
2022-10-20T10:59:18.879Z,9.08
2022-10-20T11:00:35.153Z,8.90
2022-10-20T11:02:46.019Z,8.84
2022-10-20T11:04:08.068Z,8.89
2022-10-20T11:05:51.920Z,8.94
2022-10-20T11:07:25.193Z,8.84
2022-10-20T11:08:58.856Z,8.72
2022-10-20T11:10:13.157Z,8.51
2022-10-20T11:11:43.930Z,8.55
2022-10-20T11:12:52.993Z,8.46
2022-10-20T11:14:45.864Z,8.30
2022-10-20T11:16:22.870Z,8.38
2022-10-20T11:17:31.344Z,8.40
2022-10-20T11:19:10.438Z,8.44
2022-10-20T11:20:19.767Z,8.41
2022-10-20T11:21:34.912Z,8.41
2022-10-20T11:22:40.153Z,8.46
2022-10-20T11:23:45.171Z,8.19
2022-10-20T11:25:06.341Z,8.43
2022-10-20T11:26:29.112Z,8.53
2022-10-20T11:27:36.017Z,8.53
2022-10-20T11:28:53.776Z,8.62
2022-10-20T11:30:20.025Z,8.78
2022-10-20T11:31:51.335Z,8.82
2022-10-20T11:33:27.053Z,8.82
2022-10-20T11:34:55.828Z,8.84
2022-10-20T11:36:03.863Z,8.80
2022-10-20T11:37:30.212Z,8.98
2022-10-20T11:39:01.635Z,9.01
2022-10-20T11:40:16.490Z,8.81
2022-10-20T11:41:39.658Z,8.60
2022-10-20T11:43:14.787Z,8.71
2022-10-20T11:44:40.978Z,8.96
2022-10-20T11:46:26.893Z,8.87
2022-10-20T11:47:39.577Z,8.88
2022-10-20T11:48:51.964Z,8.98
2022-10-20T11:49:54.503Z,9.08
2022-10-20T11:51:34.651Z,9.00
2022-10-20T11:53:02.060Z,8.96
2022-10-20T11:54:25.707Z,8.99
2022-10-20T11:55:58.224Z,9.09
2022-10-20T11:57:13.049Z,8.62
2022-10-20T11:58:41.553Z,8.93
2022-10-20T12:00:02.526Z,8.86
2022-10-20T12:01:33.436Z,9.05
2022-10-20T12:02:53.796Z,9.00
2022-10-20T12:04:14.429Z,9.10
2022-10-20T12:06:04.186Z,8.77
2022-10-20T12:07:29.024Z,8.86
2022-10-20T12:08:56.359Z,8.68
2022-10-20T12:10:07.095Z,8.74
2022-10-20T12:11:38.300Z,8.73
2022-10-20T12:12:54.517Z,8.80
2022-10-20T12:14:08.885Z,8.75
2022-10-20T12:15:23.588Z,8.53
2022-10-20T12:16:54.774Z,8.79
2022-10-20T12:18:07.317Z,8.85
2022-10-20T12:19:23.963Z,8.90
2022-10-20T12:20:26.022Z,8.80
2022-10-20T12:22:07.164Z,8.63
2022-10-20T12:23:45.775Z,8.77
2022-10-20T12:24:54.531Z,8.82
2022-10-20T12:25:57.897Z,8.82
2022-10-20T12:27:08.673Z,8.82
2022-10-20T12:28:23.009Z,8.94
2022-10-20T12:29:31.231Z,8.95
2022-10-20T12:30:40.488Z,8.74
2022-10-20T12:32:21.890Z,8.69
2022-10-20T12:33:49.898Z,8.74
2022-10-20T12:34:54.642Z,8.68
2022-10-20T12:36:15.625Z,8.62
2022-10-20T12:37:19.988Z,8.68
2022-10-20T12:38:23.799Z,8.51
2022-10-20T12:39:31.060Z,8.49
2022-10-20T12:40:33.504Z,8.50
2022-10-20T12:41:42.154Z,8.47
2022-10-20T12:42:52.488Z,8.47
2022-10-20T12:44:01.808Z,8.68
2022-10-20T12:45:03.892Z,8.51
2022-10-20T12:46:12.820Z,8.46
2022-10-20T12:47:23.992Z,8.71
2022-10-20T12:48:27.125Z,8.62
2022-10-20T12:49:41.681Z,8.54
2022-10-20T12:50:49.129Z,8.52
2022-10-20T12:51:54.628Z,8.68
2022-10-20T12:53:08.840Z,8.80
2022-10-20T12:54:44.882Z,8.70
2022-10-20T12:56:09.676Z,8.72
2022-10-20T12:57:41.921Z,8.74
2022-10-20T12:59:20.088Z,8.66
2022-10-20T13:00:22.796Z,8.61
2022-10-20T13:01:29.406Z,8.60
2022-10-20T13:02:33.687Z,8.55
2022-10-20T13:03:40.689Z,8.36
2022-10-20T13:04:57.990Z,8.37
2022-10-20T13:06:00.923Z,8.31
2022-10-20T13:07:03.734Z,8.40
2022-10-20T13:08:23.049Z,8.37
2022-10-20T13:09:25.323Z,8.24
2022-10-20T13:10:30.270Z,8.42
2022-10-20T13:11:41.638Z,8.32
2022-10-20T13:12:44.177Z,8.34
2022-10-20T13:14:01.487Z,8.36
2022-10-20T13:15:13.383Z,8.32
2022-10-20T13:16:20.475Z,8.23
2022-10-20T13:17:51.398Z,8.26
2022-10-20T13:18:53.995Z,8.23
2022-10-20T13:20:15.869Z,8.28
2022-10-20T13:21:29.904Z,8.19
2022-10-20T13:22:41.349Z,8.23
2022-10-20T13:23:48.173Z,8.27
2022-10-20T13:24:53.603Z,7.97
2022-10-20T13:26:17.440Z,7.89
2022-10-20T13:27:24.415Z,8.00
2022-10-20T13:28:29.557Z,8.00
2022-10-20T13:29:43.821Z,7.95
2022-10-20T13:31:22.680Z,7.73
2022-10-20T13:32:31.815Z,7.74
2022-10-20T13:34:06.287Z,7.68
2022-10-20T13:35:20.131Z,7.65
2022-10-20T13:36:38.223Z,7.65
2022-10-20T13:37:57.354Z,7.55
2022-10-20T13:39:09.318Z,7.47
2022-10-20T13:40:24.042Z,7.46
2022-10-20T13:41:43.405Z,7.45
2022-10-20T13:43:24.957Z,7.30
2022-10-20T13:45:09.508Z,7.27
2022-10-20T13:46:23.489Z,7.17
2022-10-20T13:47:48.637Z,7.13
2022-10-20T13:49:16.730Z,7.15
2022-10-20T13:50:23.530Z,7.20
2022-10-20T13:51:29.398Z,7.21
2022-10-20T13:52:45.170Z,7.21
2022-10-20T13:53:51.848Z,7.12
2022-10-20T13:54:54.068Z,7.12
2022-10-20T13:56:02.407Z,7.05
2022-10-20T13:57:05.707Z,7.03
2022-10-20T13:58:17.665Z,7.02
2022-10-20T14:00:33.694Z,7.01
2022-10-20T14:01:36.828Z,6.99
2022-10-20T14:02:39.873Z,6.99
2022-10-20T14:03:44.525Z,6.95
2022-10-20T14:04:46.646Z,6.90
2022-10-20T14:05:49.761Z,6.94
2022-10-20T14:06:53.512Z,6.96
2022-10-20T14:08:00.818Z,6.90
2022-10-20T14:09:21.952Z,6.96
2022-10-20T14:10:44.144Z,6.96
2022-10-20T14:11:53.295Z,6.99
2022-10-20T14:12:56.859Z,6.91
2022-10-20T14:14:01.569Z,6.98
2022-10-20T14:15:06.653Z,6.98
2022-10-20T14:16:18.782Z,6.96
2022-10-20T14:17:24.480Z,6.87
2022-10-20T14:18:32.081Z,6.86
2022-10-20T14:19:35.484Z,6.83
2022-10-20T14:20:38.998Z,6.86
2022-10-20T14:21:49.834Z,6.82
2022-10-20T14:22:55.218Z,6.78
2022-10-20T14:24:02.973Z,6.81
2022-10-20T14:25:09.018Z,6.83
2022-10-20T14:26:17.270Z,6.81
2022-10-20T14:27:30.429Z,6.75
2022-10-20T14:28:35.775Z,6.69
2022-10-20T14:29:40.123Z,6.70
2022-10-20T14:30:42.424Z,6.69
2022-10-20T14:31:47.858Z,6.74
2022-10-20T14:32:51.307Z,6.72
2022-10-20T14:33:53.846Z,6.67
2022-10-20T14:35:01.360Z,6.64
2022-10-20T14:36:04.911Z,6.60
2022-10-20T14:37:18.139Z,6.54
2022-10-20T14:38:30.664Z,6.56
2022-10-20T14:39:41.429Z,6.52
2022-10-20T14:40:51.753Z,6.53
2022-10-20T14:41:59.126Z,6.52
2022-10-20T14:43:27.223Z,6.42
2022-10-20T14:44:31.727Z,6.47
2022-10-20T14:45:34.699Z,6.41
2022-10-20T14:46:41.729Z,6.46
2022-10-20T14:47:45.643Z,6.47
2022-10-20T14:48:50.702Z,6.43
2022-10-20T14:49:55.168Z,6.44
2022-10-20T14:50:57.422Z,6.41
2022-10-20T14:52:25.894Z,6.42
2022-10-20T14:53:33.541Z,6.45
2022-10-20T14:54:54.126Z,6.33
2022-10-20T14:56:02.788Z,6.37
2022-10-20T14:57:07.911Z,6.34
2022-10-20T14:58:56.967Z,6.28
2022-10-20T15:00:04.528Z,6.31
2022-10-20T15:01:34.246Z,6.27
2022-10-20T15:02:43.273Z,6.26
2022-10-20T15:03:46.175Z,6.27
2022-10-20T15:04:52.216Z,6.30
2022-10-20T15:06:03.648Z,6.25
2022-10-20T15:07:27.937Z,6.20
2022-10-20T15:08:30.273Z,6.25
2022-10-20T15:09:40.440Z,6.21
2022-10-20T15:10:43.074Z,6.23
2022-10-20T15:11:45.588Z,6.24
2022-10-20T15:12:50.761Z,6.20
2022-10-20T15:13:55.555Z,6.31
2022-10-20T15:15:22.183Z,6.27
2022-10-20T15:16:46.632Z,6.32
2022-10-20T15:18:21.608Z,6.29
2022-10-20T15:19:30.114Z,6.29
2022-10-20T15:20:34.076Z,6.25
2022-10-20T15:21:38.769Z,6.23
2022-10-20T15:22:40.932Z,6.27
2022-10-20T15:23:42.945Z,6.30
2022-10-20T15:24:49.171Z,6.30
2022-10-20T15:25:55.976Z,6.40
2022-10-20T15:26:58.993Z,6.45
2022-10-20T15:28:01.191Z,6.53
2022-10-20T15:29:06.526Z,6.46
2022-10-20T15:30:20.647Z,6.49
2022-10-20T15:31:27.032Z,6.49
2022-10-20T15:32:29.249Z,6.55
2022-10-20T15:33:31.931Z,6.53
2022-10-20T15:34:34.046Z,6.59
2022-10-20T15:35:36.323Z,6.48
2022-10-20T15:36:41.985Z,6.48
2022-10-20T15:37:45.234Z,6.50
2022-10-20T15:38:52.157Z,6.42
2022-10-20T15:39:54.270Z,6.56
2022-10-20T15:40:56.799Z,6.44
2022-10-20T15:41:59.237Z,6.45
2022-10-20T15:43:02.650Z,6.42
2022-10-20T15:44:25.165Z,6.31
2022-10-20T15:45:29.328Z,6.40
2022-10-20T15:46:31.854Z,6.30
2022-10-20T15:47:34.132Z,6.34
2022-10-20T15:48:37.929Z,6.26
2022-10-20T15:49:40.518Z,6.25
2022-10-20T15:50:44.097Z,6.14
2022-10-20T15:51:48.146Z,6.13
2022-10-20T15:52:50.155Z,6.12
2022-10-20T15:53:52.826Z,6.00
2022-10-20T15:54:54.927Z,5.99
2022-10-20T15:55:58.577Z,5.99
2022-10-20T15:57:00.746Z,5.97
2022-10-20T15:58:03.517Z,5.93
2022-10-20T16:00:13.350Z,5.86
2022-10-20T16:01:19.270Z,5.84
2022-10-20T16:02:25.797Z,5.88
2022-10-20T16:03:28.938Z,5.86
2022-10-20T16:04:32.645Z,5.92
2022-10-20T16:05:34.876Z,5.84
2022-10-20T16:06:39.399Z,5.89
2022-10-20T16:07:41.970Z,5.96
2022-10-20T16:08:47.478Z,5.96
2022-10-20T16:09:49.718Z,6.02
2022-10-20T16:10:51.974Z,5.93
2022-10-20T16:11:54.400Z,5.96
2022-10-20T16:12:58.280Z,6.05
2022-10-20T16:14:00.394Z,6.15
2022-10-20T16:15:04.150Z,6.14
2022-10-20T16:16:08.193Z,6.14
2022-10-20T16:17:10.330Z,6.08
2022-10-20T16:18:12.514Z,6.06
2022-10-20T16:19:14.748Z,6.09
2022-10-20T16:20:17.603Z,6.17
2022-10-20T16:21:19.834Z,6.01
2022-10-20T16:22:22.109Z,6.05
2022-10-20T16:23:25.035Z,6.06
2022-10-20T16:24:27.591Z,5.95
2022-10-20T16:25:29.840Z,5.95
2022-10-20T16:26:32.439Z,5.81
2022-10-20T16:27:36.738Z,5.89
2022-10-20T16:28:39.045Z,5.94
2022-10-20T16:29:43.196Z,5.79
2022-10-20T16:30:47.294Z,5.93
2022-10-20T16:31:49.468Z,5.83
2022-10-20T16:32:52.248Z,5.88
2022-10-20T16:33:54.466Z,5.74
2022-10-20T16:34:58.340Z,5.88
2022-10-20T16:36:09.981Z,5.88
2022-10-20T16:37:12.305Z,5.94
2022-10-20T16:38:14.723Z,5.82
2022-10-20T16:39:18.041Z,5.89
2022-10-20T16:40:20.379Z,5.89
2022-10-20T16:41:23.265Z,5.83
2022-10-20T16:42:26.653Z,5.76
2022-10-20T16:43:29.518Z,5.66
2022-10-20T16:44:32.071Z,5.85
2022-10-20T16:45:34.272Z,5.73
2022-10-20T16:46:36.940Z,5.82
2022-10-20T16:47:41.416Z,5.73
2022-10-20T16:48:48.211Z,5.90
2022-10-20T16:49:50.898Z,5.76